e-Mail: Password: Lost your password? Click here. - Register a new user

c h a v e z j u a r e z . c o m

Weather - Tiempo - Wetter - Temps

METAR DATA MMMX (Mexico City)

Mexico City / Licenci, Mexico (MMMX) 19-26N 099-06W
Oct 15, 2019 - 02:45 PM EDT / 2019.10.15 1845 UTC
Wind: from the N (350 degrees) at 9 MPH (8 KT):0
Visibility: 5 mile(s):0
Sky conditions: mostly cloudy
Temperature: 73 F (23 C)
Dew Point: 48 F (9 C)
Relative Humidity: 40%
Pressure (altimeter): 30.25 in. Hg (1024 hPa)
ob: MMMX 151845Z 35008KT 5SM FEW020 BKN230 23/09 A3025 NOSIG RMK 8/102 HZY
cycle: 19

Mexico City

St. Prex




Current weather alarms for Switzerland


www.wetteralarm.ch